Terminal Aerodrome Forecast
Issued by NWS

Home | Current Version | Previous Version | Text Only | Print | Product List | Glossary On
Versions: 1 2 3 4 5 6 7 8 9 10 11 12 13 14 15 16 17 18 19 20 21 22 23 24 25 26 27 28
000
FTUS41 KBUF 011700
TAFIAG
TAF
KIAG 011738Z 0118/0218 21011KT P6SM BKN050
     FM012000 21012KT P6SM SCT050
     FM020100 20009KT P6SM SCT250
     FM020300 21010KT P6SM BKN045
     FM021400 24010KT P6SM VCSH OVC050
     FM021600 25009KT 6SM -SHRA VCTS OVC050CB=

USA.gov is the U.S. government's official web portal to all federal, state and local government web resources and services.